Time;durP1;ratioP1;P1;durP2;ratioP2;P2;SDS_P1;SDS_P2;PMS_P1;PMS_P2;Temp;Humidity;BMP_temperature;BMP_pressure;BME280_temperature;BME280_humidity;BME280_pressure;Samples;Min_cycle;Max_cycle;Signal;HPM_P1;HPM_P2
2022/05/20 00:01:10;;;;;;;4.75;1.52;;;;;;;-141.50;100.00;63355.56;5077548;28;20147;-80
2022/05/20 00:03:39;;;;;;;1.77;1.10;;;;;;;-141.50;100.00;63355.56;5076970;28;20051;-82
2022/05/20 00:06:06;;;;;;;5.90;1.50;;;;;;;-141.50;100.00;63355.56;5094578;28;20097;-80
2022/05/20 00:08:33;;;;;;;2.67;1.20;;;;;;;-141.50;100.00;63355.56;5076537;28;20458;-82
2022/05/20 00:11:00;;;;;;;6.30;1.48;;;;;;;-141.50;100.00;63355.56;5095646;28;20047;-81
2022/05/20 00:13:29;;;;;;;4.32;1.55;;;;;;;-141.50;100.00;63355.56;5094977;28;20056;-81
2022/05/20 00:15:56;;;;;;;3.17;1.20;;;;;;;-141.50;100.00;63355.56;5084835;28;20496;-81
2022/05/20 00:18:23;;;;;;;3.92;1.38;;;;;;;-141.50;100.00;63355.56;5076112;28;20301;-80
2022/05/20 00:20:52;;;;;;;4.45;1.35;;;;;;;-141.50;100.00;63355.56;5096475;28;20301;-82
2022/05/20 00:23:19;;;;;;;7.30;1.35;;;;;;;-141.50;100.00;63355.56;5095548;28;20044;-81
2022/05/20 00:25:46;;;;;;;5.72;1.58;;;;;;;-141.50;100.00;63355.56;5094210;28;20040;-80
2022/05/20 00:28:21;;;;;;;2.55;1.25;;;;;;;-141.50;100.00;63355.56;5094631;28;20048;-82
2022/05/20 00:30:58;;;;;;;2.58;1.35;;;;;;;-141.50;100.00;63355.56;5076351;28;20123;-83
2022/05/20 00:33:25;;;;;;;2.70;1.25;;;;;;;-141.50;100.00;63355.56;5077363;28;20044;-81
2022/05/20 00:35:52;;;;;;;4.80;1.33;;;;;;;-141.50;100.00;63355.56;5090726;28;20082;-79
2022/05/20 00:38:18;;;;;;;3.38;1.42;;;;;;;-141.50;100.00;63355.56;5109262;28;20036;-81
2022/05/20 00:40:48;;;;;;;3.25;1.50;;;;;;;-141.50;100.00;63355.56;5085374;28;20071;-81
2022/05/20 00:43:31;;;;;;;2.83;1.40;;;;;;;-141.50;100.00;63355.56;5098197;28;20052;-81
2022/05/20 00:46:00;;;;;;;2.55;1.30;;;;;;;-141.50;100.00;63355.56;5079845;28;20047;-84
2022/05/20 00:48:28;;;;;;;3.63;1.50;;;;;;;-141.50;100.00;63355.56;5096674;28;20472;-82
2022/05/20 00:51:12;;;;;;;3.40;1.30;;;;;;;-141.50;100.00;63355.56;5079232;28;20269;-83
2022/05/20 00:53:48;;;;;;;7.25;1.50;;;;;;;-141.50;100.00;63355.56;5096409;28;20591;-82
2022/05/20 00:56:19;;;;;;;2.13;1.60;;;;;;;-141.50;100.00;63355.56;5091760;28;20048;-81
2022/05/20 00:58:47;;;;;;;5.57;1.52;;;;;;;-141.50;100.00;63355.56;5073683;28;20056;-84
2022/05/20 01:01:13;;;;;;;3.72;1.55;;;;;;;-141.50;100.00;63355.56;5074275;28;20059;-83
2022/05/20 01:03:42;;;;;;;2.67;1.40;;;;;;;-141.50;100.00;63355.56;5093015;28;20048;-81
2022/05/20 01:06:10;;;;;;;2.90;1.20;;;;;;;-141.50;100.00;63355.56;5096899;28;20244;-84
2022/05/20 01:08:38;;;;;;;5.18;1.30;;;;;;;-141.50;100.00;63355.56;5077651;28;20492;-84
2022/05/20 01:11:04;;;;;;;2.70;1.50;;;;;;;-141.50;100.00;63355.56;5096040;28;20044;-82
2022/05/20 01:13:32;;;;;;;3.72;1.38;;;;;;;-141.50;100.00;63355.56;5100006;28;20051;-81
2022/05/20 01:16:02;;;;;;;10.80;1.65;;;;;;;-141.50;100.00;63355.56;5090944;28;20063;-82
2022/05/20 01:18:34;;;;;;;2.97;1.52;;;;;;;-141.50;100.00;63355.56;5117634;28;20078;-83
2022/05/20 01:21:01;;;;;;;6.38;1.60;;;;;;;-141.50;100.00;63355.56;5095424;28;20056;-83
2022/05/20 01:23:29;;;;;;;4.80;1.42;;;;;;;-141.50;100.00;63355.56;5093310;28;20508;-84
2022/05/20 01:25:58;;;;;;;4.88;1.60;;;;;;;-141.50;100.00;63355.56;5113369;28;20106;-85
2022/05/20 01:28:27;;;;;;;3.30;1.73;;;;;;;-141.50;100.00;63355.56;5103393;28;20112;-83
2022/05/20 01:30:56;;;;;;;2.53;1.45;;;;;;;-141.50;100.00;63355.56;5101776;28;20055;-86
2022/05/20 01:33:32;;;;;;;3.20;1.60;;;;;;;-141.50;100.00;63355.56;5117692;28;20098;-83
2022/05/20 01:36:01;;;;;;;2.63;1.60;;;;;;;-141.50;100.00;63355.56;5096654;28;20108;-82
2022/05/20 01:38:28;;;;;;;7.32;1.73;;;;;;;-141.50;100.00;63355.56;5115353;28;20266;-84
2022/05/20 01:40:57;;;;;;;2.28;1.55;;;;;;;-141.50;100.00;63355.56;5115070;28;20044;-82
2022/05/20 01:43:38;;;;;;;2.90;1.50;;;;;;;-141.50;100.00;63355.56;5098514;28;20085;-81
2022/05/20 01:46:19;;;;;;;4.05;1.70;;;;;;;-141.50;100.00;63355.56;5098128;28;20113;-84
2022/05/20 01:49:10;;;;;;;5.82;1.60;;;;;;;-141.50;100.00;63355.56;5117020;28;20058;-82
2022/05/20 01:52:09;;;;;;;8.40;1.58;;;;;;;-141.50;100.00;63355.56;5115269;28;20075;-82
2022/05/20 01:54:52;;;;;;;5.10;1.75;;;;;;;-141.50;100.00;63355.56;5113008;28;20130;-83
2022/05/20 01:57:40;;;;;;;2.72;1.55;;;;;;;-141.50;100.00;63355.56;5114646;28;20082;-81
2022/05/20 02:00:18;;;;;;;2.80;1.73;;;;;;;-141.50;100.00;63355.56;5096697;28;20515;-83
2022/05/20 02:03:18;;;;;;;2.50;1.70;;;;;;;-141.50;100.00;63355.56;5116739;28;20071;-81
2022/05/20 02:06:03;;;;;;;3.90;1.60;;;;;;;-141.50;100.00;63355.56;5115495;28;20055;-81
2022/05/20 02:08:37;;;;;;;2.67;1.77;;;;;;;-141.50;100.00;63355.56;5116199;28;20048;-85
2022/05/20 02:11:13;;;;;;;5.07;1.58;;;;;;;-141.50;100.00;63355.56;5117732;28;20583;-81
2022/05/20 02:13:47;;;;;;;8.88;2.10;;;;;;;-141.50;100.00;63355.56;5101289;28;20081;-80
2022/05/20 02:16:25;;;;;;;6.82;1.83;;;;;;;-141.50;100.00;63355.56;5111636;28;20106;-80
2022/05/20 02:19:10;;;;;;;4.32;1.98;;;;;;;-141.50;100.00;63355.56;5085303;28;20052;-81
2022/05/20 02:21:42;;;;;;;4.60;2.10;;;;;;;-141.50;100.00;63355.56;5106351;28;20109;-81
2022/05/20 02:24:12;;;;;;;2.47;1.70;;;;;;;-141.50;100.00;63355.56;5104189;28;20123;-82
2022/05/20 02:26:45;;;;;;;8.10;2.22;;;;;;;-141.50;100.00;63355.56;5100295;28;20044;-83
2022/05/20 02:29:16;;;;;;;3.63;1.92;;;;;;;-141.50;100.00;63355.56;5082784;28;20127;-81
2022/05/20 02:32:07;;;;;;;7.78;2.50;;;;;;;-141.50;100.00;63355.56;5098088;28;20040;-80
2022/05/20 02:34:34;;;;;;;3.05;1.92;;;;;;;-141.50;100.00;63355.56;5099232;28;20044;-81
2022/05/20 02:37:17;;;;;;;2.40;1.45;;;;;;;-141.50;100.00;63355.56;5092690;28;20072;-83
2022/05/20 02:39:43;;;;;;;4.57;2.10;;;;;;;-141.50;100.00;63355.56;5087642;28;20134;-82
2022/05/20 02:42:10;;;;;;;5.05;2.33;;;;;;;-141.50;100.00;63355.56;5088704;28;20052;-83
2022/05/20 02:44:36;;;;;;;4.43;1.92;;;;;;;-141.50;100.00;63355.56;5089198;28;20069;-82
2022/05/20 02:47:03;;;;;;;4.50;2.00;;;;;;;-141.50;100.00;63355.56;5086850;28;20063;-84
2022/05/20 02:49:30;;;;;;;2.80;1.90;;;;;;;-141.50;100.00;63355.56;5102088;28;20636;-83
2022/05/20 02:51:56;;;;;;;2.33;1.88;;;;;;;-141.50;100.00;63355.56;5086110;28;20052;-81
2022/05/20 02:54:23;;;;;;;3.85;2.10;;;;;;;-141.50;100.00;63355.56;5092523;28;20121;-81
2022/05/20 02:56:50;;;;;;;4.93;1.95;;;;;;;-141.50;100.00;63355.56;5093564;28;20568;-81
2022/05/20 03:04:48;;;;;;;4.38;2.25;;;;;;;-141.50;100.00;63355.56;5097678;28;20191;-82
2022/05/20 03:07:14;;;;;;;3.20;2.22;;;;;;;-141.50;100.00;63355.56;5081311;28;20044;-82
2022/05/20 03:09:41;;;;;;;5.43;2.38;;;;;;;-141.50;100.00;63355.56;5101152;28;20460;-81
2022/05/20 03:12:10;;;;;;;4.43;2.13;;;;;;;-141.50;100.00;63355.56;5082756;28;20052;-80
2022/05/20 03:14:38;;;;;;;4.30;2.30;;;;;;;-141.50;100.00;63355.56;5101052;28;20074;-80
2022/05/20 03:17:08;;;;;;;7.47;2.28;;;;;;;-141.50;100.00;63355.56;5097056;28;20048;-82
2022/05/20 03:19:40;;;;;;;5.15;2.42;;;;;;;-141.50;100.00;63355.56;5089211;28;20158;-80
2022/05/20 03:22:07;;;;;;;5.35;2.25;;;;;;;-141.50;100.00;63355.56;5088160;28;20051;-79
2022/05/20 03:24:34;;;;;;;6.88;2.28;;;;;;;-141.50;100.00;63355.56;5091140;28;20070;-81
2022/05/20 03:27:01;;;;;;;3.83;2.55;;;;;;;-141.50;100.00;63355.56;5090521;28;20077;-81
2022/05/20 03:29:27;;;;;;;5.53;2.60;;;;;;;-141.50;100.00;63355.56;5098807;28;20048;-82
2022/05/20 03:31:55;;;;;;;4.05;2.50;;;;;;;-141.50;100.00;63355.56;5093845;28;20051;-82
2022/05/20 03:34:25;;;;;;;4.88;2.60;;;;;;;-141.50;100.00;63355.56;5095108;28;20051;-82
2022/05/20 03:36:51;;;;;;;4.88;2.50;;;;;;;-141.50;100.00;63355.56;5098513;28;20055;-82
2022/05/20 03:39:24;;;;;;;5.75;2.22;;;;;;;-141.50;100.00;63355.56;5067785;28;20129;-81
2022/05/20 03:41:50;;;;;;;4.45;2.45;;;;;;;-141.50;100.00;63355.56;5070892;28;20047;-81
2022/05/20 03:44:17;;;;;;;4.95;2.38;;;;;;;-141.50;100.00;63355.56;5088795;28;20063;-81
2022/05/20 03:46:51;;;;;;;4.43;2.30;;;;;;;-141.50;100.00;63355.56;5090490;28;20044;-82
2022/05/20 03:49:18;;;;;;;7.43;2.58;;;;;;;-141.50;100.00;63355.56;5086929;28;20082;-81
2022/05/20 03:51:47;;;;;;;4.97;2.30;;;;;;;-141.50;100.00;63355.56;5086217;28;20059;-82
2022/05/20 03:54:15;;;;;;;4.05;2.50;;;;;;;-141.50;100.00;63355.56;5079865;28;20048;-81
2022/05/20 03:56:42;;;;;;;5.53;2.75;;;;;;;-141.50;100.00;63355.56;5085543;28;20110;-81
2022/05/20 03:59:09;;;;;;;6.93;2.50;;;;;;;-141.50;100.00;63355.56;5094128;28;20052;-80
2022/05/20 04:01:56;;;;;;;3.65;2.40;;;;;;;-141.50;100.00;63355.56;5076582;28;20064;-82
2022/05/20 04:04:31;;;;;;;3.92;2.78;;;;;;;-141.50;100.00;63355.56;5089578;28;20139;-81
2022/05/20 04:07:03;;;;;;;6.80;2.60;;;;;;;-141.50;100.00;63355.56;5100926;28;20032;-83
2022/05/20 04:09:30;;;;;;;5.47;2.58;;;;;;;-141.50;100.00;63355.56;5089393;28;20044;-73
2022/05/20 04:12:03;;;;;;;6.38;2.70;;;;;;;-141.50;100.00;63355.56;5070817;28;20094;-72
2022/05/20 04:14:31;;;;;;;6.07;2.58;;;;;;;-141.50;100.00;63355.56;5080706;28;20117;-72
2022/05/20 04:17:01;;;;;;;6.32;2.30;;;;;;;-141.50;100.00;63355.56;5067183;28;20048;-81
2022/05/20 04:19:30;;;;;;;7.47;2.72;;;;;;;-141.50;100.00;63355.56;5092437;28;20468;-81
2022/05/20 04:22:01;;;;;;;7.32;2.42;;;;;;;-141.50;100.00;63355.56;5090466;28;20079;-81
2022/05/20 04:24:28;;;;;;;6.65;2.33;;;;;;;-141.50;100.00;63355.56;5105234;28;20071;-81
2022/05/20 04:26:57;;;;;;;4.93;2.50;;;;;;;-141.50;100.00;63355.56;5110855;28;20069;-83
2022/05/20 04:29:23;;;;;;;3.17;2.13;;;;;;;-141.50;100.00;63355.56;5091472;28;20040;-83
2022/05/20 04:31:51;;;;;;;6.63;2.55;;;;;;;-141.50;100.00;63355.56;5084351;28;20059;-84
2022/05/20 04:34:21;;;;;;;4.22;2.42;;;;;;;-141.50;100.00;63355.56;5073984;28;20040;-84
2022/05/20 04:36:48;;;;;;;3.72;2.50;;;;;;;-141.50;100.00;63355.56;5093863;28;20056;-85
2022/05/20 04:39:27;;;;;;;6.55;2.50;;;;;;;-141.50;100.00;63355.56;5075450;28;20062;-86
2022/05/20 04:47:35;;;;;;;5.60;2.78;;;;;;;-141.50;100.00;63355.56;5095684;28;20137;-84
2022/05/20 04:50:06;;;;;;;6.38;2.42;;;;;;;-141.50;100.00;63355.56;5081854;28;20134;-83
2022/05/20 04:52:33;;;;;;;4.40;2.20;;;;;;;-141.50;100.00;63355.56;5071317;28;20055;-83
2022/05/20 04:55:06;;;;;;;4.88;2.40;;;;;;;-141.50;100.00;63355.56;5098886;28;20051;-84
2022/05/20 04:57:45;;;;;;;6.65;2.85;;;;;;;-141.50;100.00;63355.56;5076966;28;20568;-85
2022/05/20 05:00:20;;;;;;;6.20;2.40;;;;;;;-141.50;100.00;63355.56;5074935;28;20110;-82
2022/05/20 05:02:47;;;;;;;5.30;2.20;;;;;;;-141.50;100.00;63355.56;5092763;28;20278;-83
2022/05/20 05:05:17;;;;;;;4.75;2.40;;;;;;;-141.50;100.00;63355.56;5076935;28;20578;-83
2022/05/20 05:07:47;;;;;;;4.00;2.42;;;;;;;-141.50;100.00;63355.56;5066399;28;20053;-84
2022/05/20 05:10:17;;;;;;;4.47;2.20;;;;;;;-141.50;100.00;63355.56;5074226;28;20028;-82
2022/05/20 05:12:44;;;;;;;4.40;2.25;;;;;;;-141.50;100.00;63355.56;5085663;28;20079;-82
2022/05/20 05:15:12;;;;;;;3.70;2.10;;;;;;;-141.50;100.00;63355.56;5093232;28;20055;-83
2022/05/20 05:20:27;;;;;;;4.68;2.30;;;;;;;-141.50;100.00;63355.56;5095041;28;20074;-82
2022/05/20 05:22:57;;;;;;;4.60;2.05;;;;;;;-141.50;100.00;63355.56;5094462;28;20024;-84
2022/05/20 05:25:27;;;;;;;4.40;2.50;;;;;;;-141.50;100.00;63355.56;5105927;28;20108;-82
2022/05/20 05:27:53;;;;;;;4.97;2.38;;;;;;;-141.50;100.00;63355.56;5111533;28;20079;-85
2022/05/20 05:30:28;;;;;;;13.57;2.20;;;;;;;-141.50;100.00;63355.56;5073013;28;20044;-85
2022/05/20 05:32:54;;;;;;;4.97;2.58;;;;;;;-141.50;100.00;63355.56;5054362;28;20083;-84
2022/05/20 05:35:23;;;;;;;5.25;2.53;;;;;;;-141.50;100.00;63355.56;5070484;28;20114;-83
2022/05/20 05:37:50;;;;;;;7.28;2.50;;;;;;;-141.50;100.00;63355.56;5071549;28;20134;-85
2022/05/20 05:40:20;;;;;;;5.70;2.67;;;;;;;-141.50;100.00;63355.56;5080601;28;20079;-84
2022/05/20 05:42:47;;;;;;;4.63;2.30;;;;;;;-141.50;100.00;63355.56;5075096;28;20070;-85
2022/05/20 05:45:21;;;;;;;6.30;2.40;;;;;;;-141.50;100.00;63355.56;5077089;28;20128;-84
2022/05/20 05:48:20;;;;;;;5.28;2.60;;;;;;;-141.50;100.00;63355.56;5072708;28;20588;-85
2022/05/20 05:50:47;;;;;;;5.35;2.45;;;;;;;-141.50;100.00;63355.56;5063660;28;20048;-85
2022/05/20 05:53:18;;;;;;;4.75;2.47;;;;;;;-141.50;100.00;63355.56;5075524;28;20051;-84
2022/05/20 05:55:53;;;;;;;5.30;2.33;;;;;;;-141.50;100.00;63355.56;5061893;28;20053;-84
2022/05/20 05:58:23;;;;;;;11.15;2.75;;;;;;;-141.50;100.00;63355.56;5074539;28;20070;-85
2022/05/20 06:00:49;;;;;;;6.70;2.80;;;;;;;-141.50;100.00;63355.56;5089850;28;20463;-85
2022/05/20 06:03:16;;;;;;;5.97;2.53;;;;;;;-141.50;100.00;63355.56;5067047;28;20059;-83
2022/05/20 06:05:44;;;;;;;8.55;2.70;;;;;;;-141.50;100.00;63355.56;5087698;28;20086;-84
2022/05/20 06:08:11;;;;;;;6.57;2.92;;;;;;;-141.50;100.00;63355.56;5112808;28;20524;-84
2022/05/20 06:10:37;;;;;;;5.78;2.80;;;;;;;-141.50;100.00;63355.56;5106207;28;20078;-86
2022/05/20 06:13:04;;;;;;;7.10;2.58;;;;;;;-141.50;100.00;63355.56;5103563;28;20093;-86
2022/05/20 06:15:31;;;;;;;4.30;2.65;;;;;;;-141.50;100.00;63355.56;5101178;28;20086;-87
2022/05/20 06:17:57;;;;;;;4.97;2.80;;;;;;;-141.50;100.00;63355.56;5099628;28;20056;-85
2022/05/20 06:20:26;;;;;;;5.60;2.65;;;;;;;-141.50;100.00;63355.56;5082952;28;20064;-83
2022/05/20 06:22:53;;;;;;;5.90;2.67;;;;;;;-141.50;100.00;63355.56;5065034;28;20068;-86
2022/05/20 06:25:24;;;;;;;5.65;2.75;;;;;;;-141.50;100.00;63355.56;5057898;28;20405;-86
2022/05/20 06:27:51;;;;;;;4.53;2.40;;;;;;;-141.50;100.00;63355.56;5054479;28;20075;-85
2022/05/20 06:30:19;;;;;;;5.43;2.90;;;;;;;-141.50;100.00;63355.56;5089124;28;20055;-84
2022/05/20 06:32:47;;;;;;;6.10;2.78;;;;;;;-141.50;100.00;63355.56;5064316;28;20048;-86
2022/05/20 06:40:46;;;;;;;5.63;2.92;;;;;;;-141.50;100.00;63355.56;5072523;28;20060;-86
2022/05/20 06:43:19;;;;;;;4.32;2.50;;;;;;;-141.50;100.00;63355.56;5056934;28;20056;-86
2022/05/20 06:45:49;;;;;;;4.70;2.42;;;;;;;-141.50;100.00;63355.56;5075093;28;20052;-85
2022/05/20 06:48:46;;;;;;;7.47;2.53;;;;;;;-141.50;100.00;63355.56;5076014;28;20385;-87
2022/05/20 06:51:17;;;;;;;7.18;2.75;;;;;;;-141.50;100.00;63355.56;5075511;28;20064;-85
2022/05/20 06:53:44;;;;;;;4.53;2.60;;;;;;;-141.50;100.00;63355.56;5074859;28;20142;-85
2022/05/20 06:56:12;;;;;;;7.28;2.78;;;;;;;-141.50;100.00;63355.56;5098183;28;20067;-85
2022/05/20 06:58:39;;;;;;;4.13;2.17;;;;;;;-141.50;100.00;63355.56;5103188;28;20079;-87
2022/05/20 07:01:06;;;;;;;6.15;2.50;;;;;;;-141.50;100.00;63355.56;5081525;28;20137;-85
2022/05/20 07:03:33;;;;;;;8.05;2.45;;;;;;;-141.50;100.00;63355.56;5099728;28;20055;-85
2022/05/20 07:06:01;;;;;;;5.45;2.42;;;;;;;-141.50;100.00;63355.56;5084266;28;20048;-82
2022/05/20 07:08:28;;;;;;;4.28;2.10;;;;;;;-141.50;100.00;63355.56;5089785;28;20132;-83
2022/05/20 07:10:54;;;;;;;7.68;2.55;;;;;;;-141.50;100.00;63355.56;5087645;28;20060;-85
2022/05/20 07:13:37;;;;;;;6.18;2.67;;;;;;;-141.50;100.00;63355.56;5079991;28;20048;-86
2022/05/20 07:16:04;;;;;;;3.00;2.30;;;;;;;-141.50;100.00;63355.56;5077424;28;20617;-86
2022/05/20 07:18:31;;;;;;;4.22;2.05;;;;;;;-141.50;100.00;63355.56;5099449;28;20448;-84
2022/05/20 07:20:58;;;;;;;9.25;2.38;;;;;;;-141.50;100.00;63355.56;5100171;28;20130;-85
2022/05/20 07:23:28;;;;;;;5.72;2.55;;;;;;;-141.50;100.00;63355.56;5103475;28;20051;-82
2022/05/20 07:25:55;;;;;;;7.78;2.55;;;;;;;-141.50;100.00;63355.56;5090319;28;20036;-82
2022/05/20 07:28:22;;;;;;;5.57;2.72;;;;;;;-141.50;100.00;63355.56;5077708;28;20048;-79
2022/05/20 07:30:48;;;;;;;4.00;2.50;;;;;;;-141.50;100.00;63355.56;5094434;28;20064;-80
2022/05/20 07:33:15;;;;;;;4.38;2.78;;;;;;;-141.50;100.00;63355.56;5077952;28;20055;-80
2022/05/20 07:35:41;;;;;;;10.20;2.90;;;;;;;-141.50;100.00;63355.56;5083413;28;20083;-84
2022/05/20 07:38:08;;;;;;;4.13;2.42;;;;;;;-141.50;100.00;63355.56;5063227;28;20064;-85
2022/05/20 07:40:35;;;;;;;7.53;2.63;;;;;;;-141.50;100.00;63355.56;5065199;28;20071;-83
2022/05/20 07:43:08;;;;;;;5.38;2.42;;;;;;;-141.50;100.00;63355.56;5054054;28;20564;-83
2022/05/20 07:45:34;;;;;;;6.35;2.92;;;;;;;-141.50;100.00;63355.56;5053842;28;20063;-83
2022/05/20 07:48:01;;;;;;;4.57;2.30;;;;;;;-141.50;100.00;63355.56;5054671;28;20049;-81
2022/05/20 07:50:28;;;;;;;5.70;2.80;;;;;;;-141.50;100.00;63355.56;5073315;28;20143;-82
2022/05/20 07:55:45;;;;;;;8.82;2.40;;;;;;;-141.50;100.00;63355.56;5077552;28;20074;-81
2022/05/20 07:58:17;;;;;;;4.70;2.35;;;;;;;-141.50;100.00;63355.56;5058451;28;20064;-82
2022/05/20 08:00:45;;;;;;;13.32;2.50;;;;;;;-141.50;100.00;63355.56;5060298;28;20052;-85
2022/05/20 08:04:52;;;;;;;4.03;2.33;;;;;;;-141.50;100.00;63355.56;5082650;28;20049;-82
2022/05/20 08:06:05;;;;;;;4.03;2.10;;;;;;;-141.50;100.00;63355.56;5069768;28;20139;-83
2022/05/20 08:08:34;;;;;;;4.30;2.47;;;;;;;-141.50;100.00;63355.56;5053592;28;20139;-84
2022/05/20 08:11:00;;;;;;;7.38;2.20;;;;;;;-141.50;100.00;63355.56;5054782;28;20049;-84
2022/05/20 08:13:29;;;;;;;5.90;2.22;;;;;;;-141.50;100.00;63355.56;5078893;28;20128;-84
2022/05/20 08:15:56;;;;;;;4.97;2.78;;;;;;;-141.50;100.00;63355.56;5074741;28;20036;-81
2022/05/20 08:18:26;;;;;;;4.05;2.28;;;;;;;-141.50;100.00;63355.56;5070954;28;20087;-85
2022/05/20 08:20:55;;;;;;;6.50;3.28;;;;;;;-141.50;100.00;63355.56;5057665;28;20056;-84
2022/05/20 08:23:23;;;;;;;4.00;2.58;;;;;;;-141.50;100.00;63355.56;5066889;28;20054;-84
2022/05/20 08:25:52;;;;;;;6.22;2.60;;;;;;;-141.50;100.00;63355.56;5076681;28;20053;-87
2022/05/20 08:28:23;;;;;;;10.38;3.00;;;;;;;-141.50;100.00;63355.56;5053964;28;20055;-85
2022/05/20 08:30:50;;;;;;;3.67;2.50;;;;;;;-141.50;100.00;63355.56;5072643;28;20139;-86
2022/05/20 08:33:19;;;;;;;8.20;2.90;;;;;;;-141.50;100.00;63355.56;5056209;28;20052;-85
2022/05/20 08:35:52;;;;;;;4.70;2.58;;;;;;;-141.50;100.00;63355.56;5079859;28;20514;-85
2022/05/20 08:38:21;;;;;;;10.55;2.72;;;;;;;-141.50;100.00;63355.56;5075283;28;20040;-86
2022/05/20 08:40:49;;;;;;;4.68;2.70;;;;;;;-141.50;100.00;63355.56;5096405;28;20054;-82
2022/05/20 08:43:24;;;;;;;3.33;2.28;;;;;;;-141.50;100.00;63355.56;5077098;28;20127;-85
2022/05/20 08:45:53;;;;;;;3.63;2.22;;;;;;;-141.50;100.00;63355.56;5074706;28;20078;-86
2022/05/20 08:48:20;;;;;;;3.78;2.38;;;;;;;-141.50;100.00;63355.56;5094801;28;20071;-86
2022/05/20 08:50:50;;;;;;;4.32;1.88;;;;;;;-141.50;100.00;63355.56;5053818;28;20122;-85
2022/05/20 08:53:28;;;;;;;4.43;2.30;;;;;;;-141.50;100.00;63355.56;5055331;28;20057;-82
2022/05/20 08:56:03;;;;;;;2.95;2.10;;;;;;;-141.50;100.00;63355.56;5079640;28;20052;-86
2022/05/20 08:58:31;;;;;;;6.43;2.00;;;;;;;-141.50;100.00;63355.56;5056159;28;20064;-85
2022/05/20 09:01:05;;;;;;;2.95;2.10;;;;;;;-141.50;100.00;63355.56;5056976;28;20049;-83
2022/05/20 09:03:32;;;;;;;5.80;2.10;;;;;;;-141.50;100.00;63355.56;5077765;28;20052;-85
2022/05/20 09:06:06;;;;;;;3.92;2.10;;;;;;;-141.50;100.00;63355.56;5061944;28;20058;-85
2022/05/20 09:08:34;;;;;;;4.80;2.47;;;;;;;-141.50;100.00;63355.56;5094045;28;20089;-86
2022/05/20 09:11:04;;;;;;;5.30;1.73;;;;;;;-141.50;100.00;63355.56;5079362;28;20079;-88
2022/05/20 09:16:22;;;;;;;4.63;2.17;;;;;;;-141.50;100.00;63355.56;5098114;28;20051;-85
2022/05/20 09:19:14;;;;;;;4.80;2.38;;;;;;;-141.50;100.00;63355.56;5097142;28;20048;-85
2022/05/20 09:22:00;;;;;;;3.05;2.00;;;;;;;-141.50;100.00;63355.56;5088169;28;20063;-85
2022/05/20 09:24:36;;;;;;;5.68;2.08;;;;;;;-141.50;100.00;63355.56;5090838;28;20036;-86
2022/05/20 09:27:12;;;;;;;3.25;1.73;;;;;;;-141.50;100.00;63355.56;5080824;28;20076;-85
2022/05/20 09:29:40;;;;;;;5.53;2.03;;;;;;;-141.50;100.00;63355.56;5055216;28;20052;-85
2022/05/20 09:32:38;;;;;;;2.83;2.00;;;;;;;-141.50;100.00;63355.56;5060982;28;20432;-86
2022/05/20 09:35:14;;;;;;;5.88;2.30;;;;;;;-141.50;100.00;63355.56;5056213;28;20075;-87
2022/05/20 09:37:43;;;;;;;3.83;2.30;;;;;;;-141.50;100.00;63355.56;5059924;28;20056;-85
2022/05/20 09:40:32;;;;;;;6.25;2.28;;;;;;;-141.50;100.00;63355.56;5078762;28;20045;-85
2022/05/20 09:43:36;;;;;;;4.38;2.30;;;;;;;-141.50;100.00;63355.56;5067073;28;20052;-85
2022/05/20 09:46:04;;;;;;;5.93;1.90;;;;;;;-141.50;100.00;63355.56;5064687;28;20503;-80
2022/05/20 09:48:34;;;;;;;3.63;2.00;;;;;;;-141.50;100.00;63355.56;5075752;28;20132;-84
2022/05/20 09:51:14;;;;;;;4.45;2.00;;;;;;;-141.50;100.00;63355.56;5075352;28;20156;-81
2022/05/20 09:53:44;;;;;;;4.30;2.28;;;;;;;-141.50;100.00;63355.56;5081018;28;20044;-84
2022/05/20 09:56:29;;;;;;;4.55;2.00;;;;;;;-141.50;100.00;63355.56;5092619;28;20104;-79
2022/05/20 09:59:14;;;;;;;5.78;2.50;;;;;;;-141.50;100.00;63355.56;5091193;28;20044;-85
2022/05/20 10:01:51;;;;;;;4.30;2.38;;;;;;;-141.50;100.00;63355.56;5075493;28;20086;-87
2022/05/20 10:04:36;;;;;;;5.63;2.60;;;;;;;-141.50;100.00;63355.56;5090273;28;20084;-84
2022/05/20 10:07:10;;;;;;;8.07;2.38;;;;;;;-141.50;100.00;63355.56;5084657;28;20114;-83
2022/05/20 10:10:12;;;;;;;5.05;2.72;;;;;;;-141.50;100.00;63355.56;5097660;28;20052;-83
2022/05/20 10:12:41;;;;;;;5.82;2.50;;;;;;;-141.50;100.00;63355.56;5069362;28;20060;-82
2022/05/20 10:15:17;;;;;;;7.25;2.33;;;;;;;-141.50;100.00;63355.56;5105360;28;20075;-81
2022/05/20 10:18:16;;;;;;;2.53;2.25;;;;;;;-141.50;100.00;63355.56;5095831;28;20048;-84
2022/05/20 10:20:45;;;;;;;2.60;2.10;;;;;;;-141.50;100.00;63355.56;5111380;28;20093;-83
2022/05/20 10:23:33;;;;;;;6.47;2.20;;;;;;;-141.50;100.00;63355.56;5094628;28;20036;-82
2022/05/20 10:26:12;;;;;;;3.17;2.00;;;;;;;-141.50;100.00;63355.56;5069328;28;20106;-81
2022/05/20 10:34:34;;;;;;;5.60;2.30;;;;;;;-141.50;100.00;63355.56;5095733;28;20588;-81
2022/05/20 10:37:00;;;;;;;4.65;2.25;;;;;;;-141.50;100.00;63355.56;5078427;28;20043;-83
2022/05/20 10:39:58;;;;;;;5.30;2.13;;;;;;;-141.50;100.00;63355.56;5083676;28;20109;-84
2022/05/20 10:42:43;;;;;;;6.45;2.40;;;;;;;-141.50;100.00;63355.56;5051565;28;20531;-83
2022/05/20 10:51:21;;;;;;;6.70;2.30;;;;;;;-141.50;100.00;63355.56;5092654;28;20024;-80
2022/05/20 10:54:03;;;;;;;4.32;1.90;;;;;;;-141.50;100.00;63355.56;5081240;28;20074;-80
2022/05/20 10:56:53;;;;;;;4.65;2.50;;;;;;;-141.50;100.00;63355.56;5075935;28;20037;-80
2022/05/20 10:59:35;;;;;;;5.55;2.13;;;;;;;-141.50;100.00;63355.56;5092967;28;20060;-82
2022/05/20 11:02:22;;;;;;;3.60;2.05;;;;;;;-141.50;100.00;63355.56;5082109;28;20176;-81
2022/05/20 11:05:24;;;;;;;4.65;2.10;;;;;;;-141.50;100.00;63355.56;5053899;28;20052;-82
2022/05/20 11:08:14;;;;;;;5.30;2.22;;;;;;;-141.50;100.00;63355.56;5073844;28;20050;-81
2022/05/20 11:10:55;;;;;;;4.65;2.47;;;;;;;-141.50;100.00;63355.56;5090564;28;20071;-82
2022/05/20 11:13:25;;;;;;;3.03;2.30;;;;;;;-141.50;100.00;63355.56;5067202;28;20052;-84
2022/05/20 11:16:00;;;;;;;3.90;2.40;;;;;;;-141.50;100.00;63355.56;5080255;28;20080;-83
2022/05/20 11:18:45;;;;;;;4.70;2.28;;;;;;;-141.50;100.00;63355.56;5104454;28;20098;-84
2022/05/20 11:21:42;;;;;;;3.63;2.38;;;;;;;-141.50;100.00;63355.56;5089422;28;20031;-81
2022/05/20 11:24:30;;;;;;;4.13;2.35;;;;;;;-141.50;100.00;63355.56;5094323;28;20154;-81
2022/05/20 11:27:12;;;;;;;4.07;2.35;;;;;;;-141.50;100.00;63355.56;5085129;28;20040;-84
2022/05/20 11:30:22;;;;;;;3.45;2.35;;;;;;;-141.50;100.00;63355.56;5114726;28;20032;-82
2022/05/20 11:33:16;;;;;;;3.13;2.30;;;;;;;-141.50;100.00;63355.56;5090910;28;20170;-82
2022/05/20 11:35:59;;;;;;;6.05;1.92;;;;;;;-141.50;100.00;63355.56;5089595;28;20162;-80
2022/05/20 11:38:43;;;;;;;4.32;2.10;;;;;;;-141.50;100.00;63355.56;5114102;28;20040;-79
2022/05/20 11:41:23;;;;;;;5.05;2.03;;;;;;;-141.50;100.00;63355.56;5096947;28;20032;-81
2022/05/20 11:44:27;;;;;;;6.28;2.33;;;;;;;-141.50;100.00;63355.56;5112938;28;20078;-79
2022/05/20 11:46:57;;;;;;;2.83;2.20;;;;;;;-141.50;100.00;63355.56;5083772;28;20047;-80
2022/05/20 11:49:38;;;;;;;4.68;2.47;;;;;;;-141.50;100.00;63355.56;5085644;28;20099;-83
2022/05/20 11:52:29;;;;;;;6.88;2.30;;;;;;;-141.50;100.00;63355.56;5085268;28;20048;-81
2022/05/20 11:55:04;;;;;;;3.75;2.50;;;;;;;-141.50;100.00;63355.56;5084603;28;20063;-85
2022/05/20 11:57:38;;;;;;;3.55;2.40;;;;;;;-141.50;100.00;63355.56;5103889;28;20052;-82
2022/05/20 12:00:16;;;;;;;3.83;2.20;;;;;;;-141.50;100.00;63355.56;5103616;28;20508;-82
2022/05/20 12:02:58;;;;;;;5.63;2.30;;;;;;;-141.50;100.00;63355.56;5103811;28;20048;-81
2022/05/20 12:05:32;;;;;;;6.07;2.10;;;;;;;-141.50;100.00;63355.56;5105192;28;20063;-81
2022/05/20 12:07:59;;;;;;;3.97;2.57;;;;;;;-141.50;100.00;63355.56;5076222;28;20049;-81
2022/05/20 12:10:43;;;;;;;5.68;2.28;;;;;;;-141.50;100.00;63355.56;5067804;28;20114;-84
2022/05/20 12:13:09;;;;;;;3.05;2.40;;;;;;;-141.50;100.00;63355.56;5053706;28;20501;-80